Time;durP1;ratioP1;P1;durP2;ratioP2;P2;SDS_P1;SDS_P2;PMS_P1;PMS_P2;Temp;Humidity;BMP_temperature;BMP_pressure;BME280_temperature;BME280_humidity;BME280_pressure;Samples;Min_cycle;Max_cycle;Signal;HPM_P1;HPM_P2
2022/12/15 00:39:16;;;;;;;1999.90;999.90;;;-6.70;99.90;;;;;;5048180;28;20461;-70
2022/12/15 00:41:43;;;;;;;1999.90;999.90;;;-6.70;99.90;;;;;;5048530;28;20459;-69
2022/12/15 00:44:09;;;;;;;1999.90;999.90;;;-6.80;99.90;;;;;;5048132;28;20997;-69
2022/12/15 00:46:53;;;;;;;1999.90;999.90;;;-6.90;99.90;;;;;;5048139;28;20880;-69
2022/12/15 01:22:22;;;;;;;1999.90;999.90;;;-7.00;99.90;;;;;;5049808;28;20516;-68
2022/12/15 01:24:48;;;;;;;1999.90;999.90;;;-7.20;99.90;;;;;;5048731;28;20493;-68
2022/12/15 01:27:16;;;;;;;1999.90;999.90;;;-7.20;99.90;;;;;;5048889;28;20488;-68
2022/12/15 01:29:44;;;;;;;1999.90;999.90;;;-7.20;99.90;;;;;;5052694;28;20473;-69
2022/12/15 01:32:10;;;;;;;1999.90;999.90;;;-7.30;99.90;;;;;;5053195;28;20462;-69
2022/12/15 01:34:37;;;;;;;1999.90;999.90;;;-7.40;99.90;;;;;;5052113;28;20484;-68
2022/12/15 01:37:04;;;;;;;1999.90;999.90;;;-7.60;99.90;;;;;;5053927;28;20224;-70
2022/12/15 01:40:43;;;;;;;1999.90;999.90;;;-7.60;99.90;;;;;;5052246;28;20460;-71
2022/12/15 01:42:18;;;;;;;1999.90;999.90;;;-7.60;99.90;;;;;;5052377;28;20453;-69
2022/12/15 01:44:49;;;;;;;1999.90;999.90;;;-7.70;99.90;;;;;;5050401;28;20492;-72
2022/12/15 01:47:16;;;;;;;1999.90;999.90;;;-7.70;99.90;;;;;;5052423;28;20231;-69
2022/12/15 01:49:46;;;;;;;1999.90;999.90;;;-7.60;99.90;;;;;;5053165;28;20466;-69
2022/12/15 01:52:15;;;;;;;1999.90;999.90;;;-7.50;99.90;;;;;;5050672;28;20462;-67
2022/12/15 01:54:47;;;;;;;1999.90;999.90;;;-7.60;99.90;;;;;;5051603;28;20454;-66
2022/12/15 01:57:18;;;;;;;1999.90;999.90;;;-7.60;99.90;;;;;;5051803;28;20510;-70
2022/12/15 01:59:52;;;;;;;1999.90;999.90;;;-7.60;99.90;;;;;;5051169;28;20449;-71
2022/12/15 02:02:22;;;;;;;1999.90;999.90;;;-7.60;99.90;;;;;;5052156;28;20576;-70
2022/12/15 02:04:51;;;;;;;1999.90;999.90;;;-7.60;99.90;;;;;;5049318;28;20219;-69
2022/12/15 02:07:18;;;;;;;1999.90;999.90;;;-7.60;99.90;;;;;;5052600;28;20228;-68
2022/12/15 02:09:47;;;;;;;1999.90;999.90;;;-7.60;99.90;;;;;;5051070;28;20297;-69
2022/12/15 02:12:24;;;;;;;1999.90;999.90;;;-7.70;99.90;;;;;;5052190;28;20913;-69
2022/12/15 02:15:12;;;;;;;1999.90;999.90;;;-7.70;99.90;;;;;;5051469;28;20984;-69
2022/12/15 02:17:47;;;;;;;1999.90;999.90;;;-7.80;99.90;;;;;;5044747;28;20862;-69
2022/12/15 02:20:42;;;;;;;1999.90;999.90;;;-7.90;99.90;;;;;;5052538;28;20461;-71
2022/12/15 02:23:57;;;;;;;1999.90;999.90;;;-7.90;99.90;;;;;;5049437;28;20211;-70
2022/12/15 02:27:06;;;;;;;1999.90;999.90;;;-8.00;99.90;;;;;;5050585;28;20481;-69
2022/12/15 02:30:08;;;;;;;1999.90;999.90;;;-8.00;99.90;;;;;;5051687;28;20462;-69
2022/12/15 02:32:41;;;;;;;1999.90;999.90;;;-7.90;99.90;;;;;;5051934;28;20203;-68
2022/12/15 02:35:13;;;;;;;1999.90;999.90;;;-8.00;99.90;;;;;;5049708;28;20212;-70
2022/12/15 02:37:41;;;;;;;1999.90;999.90;;;-8.00;99.90;;;;;;5051999;28;20458;-69
2022/12/15 02:40:10;;;;;;;1999.90;999.90;;;-8.00;99.90;;;;;;5050446;28;20463;-69
2022/12/15 02:42:41;;;;;;;1999.90;999.90;;;-8.00;99.90;;;;;;5051911;28;20204;-69
2022/12/15 02:45:12;;;;;;;1999.90;999.90;;;-8.00;99.90;;;;;;5050717;28;20227;-70
2022/12/15 02:47:44;;;;;;;1999.90;999.90;;;-8.00;99.90;;;;;;5050726;28;20210;-69
2022/12/15 02:50:26;;;;;;;1999.90;999.90;;;-8.00;99.90;;;;;;5050261;28;20467;-66
2022/12/15 02:53:06;;;;;;;1999.90;999.90;;;-8.10;99.90;;;;;;5051470;28;20458;-70
2022/12/15 02:55:41;;;;;;;1999.90;999.90;;;-8.10;99.90;;;;;;5050431;28;20489;-67
2022/12/15 02:58:14;;;;;;;1999.90;999.90;;;-8.20;99.90;;;;;;5051377;28;20214;-69
2022/12/15 03:00:46;;;;;;;1999.90;999.90;;;-8.10;99.90;;;;;;5051845;28;20458;-69
2022/12/15 03:03:18;;;;;;;1999.90;999.90;;;-8.20;99.90;;;;;;5049582;28;20212;-68
2022/12/15 03:05:45;;;;;;;1999.90;999.90;;;-8.20;99.90;;;;;;5049236;28;20281;-69
2022/12/15 03:08:12;;;;;;;1999.90;999.90;;;-8.30;99.90;;;;;;5052119;28;20203;-67
2022/12/15 03:10:39;;;;;;;1999.90;999.90;;;-8.30;99.90;;;;;;5051851;28;20200;-69
2022/12/15 03:13:06;;;;;;;1999.90;999.90;;;-7.80;99.90;;;;;;5051593;28;20208;-69
2022/12/15 03:15:33;;;;;;;1999.90;999.90;;;-8.20;99.90;;;;;;5050869;28;20754;-68
2022/12/15 03:18:01;;;;;;;1999.90;999.90;;;-8.10;99.90;;;;;;5070871;22;20234;-65
2022/12/15 03:20:27;;;;;;;1999.90;999.90;;;-8.00;99.90;;;;;;5044683;28;20474;-66
2022/12/15 03:22:54;;;;;;;1999.90;999.90;;;-8.20;99.90;;;;;;5049484;28;20203;-66
2022/12/15 03:25:21;;;;;;;1999.90;999.90;;;-8.40;99.90;;;;;;5060124;28;20234;-66
2022/12/15 03:27:48;;;;;;;1999.90;999.90;;;-8.00;99.90;;;;;;5051112;28;20243;-67
2022/12/15 03:30:15;;;;;;;1999.90;999.90;;;-8.30;99.90;;;;;;5054387;28;20203;-66
2022/12/15 03:32:41;;;;;;;1999.90;999.90;;;-8.30;99.90;;;;;;5049497;28;20573;-67
2022/12/15 03:35:11;;;;;;;1999.90;999.90;;;-8.20;99.90;;;;;;5050391;28;20951;-67
2022/12/15 03:37:38;;;;;;;1999.90;999.90;;;-8.20;99.90;;;;;;5051742;28;20510;-67
2022/12/15 03:40:06;;;;;;;1999.90;999.90;;;-8.20;99.90;;;;;;5052891;28;20208;-67
2022/12/15 03:45:18;;;;;;;1999.90;999.90;;;-8.20;99.90;;;;;;5045161;28;20499;-66
2022/12/15 03:47:45;;;;;;;1999.90;999.90;;;-8.20;99.90;;;;;;5051505;28;20220;-65
2022/12/15 03:50:16;;;;;;;1999.90;999.90;;;-8.10;99.90;;;;;;5053335;28;20212;-66
2022/12/15 03:52:43;;;;;;;1999.90;999.90;;;-8.10;99.90;;;;;;5052025;28;20204;-66
2022/12/15 03:55:11;;;;;;;1999.90;999.90;;;-8.10;99.90;;;;;;5052856;28;20200;-70
2022/12/15 03:57:38;;;;;;;1999.90;999.90;;;-8.10;99.90;;;;;;5050740;28;20259;-69
2022/12/15 04:00:06;;;;;;;1999.90;999.90;;;-7.90;99.90;;;;;;5050267;28;20470;-67
2022/12/15 04:02:33;;;;;;;1999.90;999.90;;;-8.10;99.90;;;;;;5050597;28;20256;-67
2022/12/15 04:05:00;;;;;;;1999.90;999.90;;;-8.20;99.90;;;;;;5049226;28;20256;-67
2022/12/15 04:07:28;;;;;;;1999.90;999.90;;;-8.10;99.90;;;;;;5050457;28;20219;-65
2022/12/15 04:09:55;;;;;;;1999.90;999.90;;;-8.00;99.90;;;;;;5049637;28;20548;-66
2022/12/15 04:12:22;;;;;;;1999.90;999.90;;;-8.00;99.90;;;;;;5049444;28;20458;-66
2022/12/15 04:14:48;;;;;;;1999.90;999.90;;;-8.00;99.90;;;;;;5047181;28;20211;-67
2022/12/15 04:17:15;;;;;;;1999.90;999.90;;;-7.90;99.90;;;;;;5052331;28;20482;-66
2022/12/15 04:22:28;;;;;;;1999.90;999.90;;;-7.80;99.90;;;;;;5048085;28;20451;-66
2022/12/15 05:33:33;;;;;;;1999.90;999.90;;;-7.50;99.90;;;;;;5049534;28;20230;-67
2022/12/15 05:36:00;;;;;;;1999.90;999.90;;;-7.50;99.90;;;;;;5052368;28;20604;-67
2022/12/15 05:38:26;;;;;;;1999.90;999.90;;;-7.40;99.90;;;;;;5049481;28;20512;-66
2022/12/15 05:40:56;;;;;;;1999.90;999.90;;;-7.40;99.90;;;;;;5056450;28;20458;-66
2022/12/15 05:43:24;;;;;;;1999.90;999.90;;;-7.40;99.90;;;;;;5059011;28;20468;-66
2022/12/15 05:45:51;;;;;;;1999.90;999.90;;;-7.40;99.90;;;;;;5055555;28;20228;-65
2022/12/15 05:48:18;;;;;;;1999.90;999.90;;;-7.30;99.90;;;;;;5060193;28;20228;-67
2022/12/15 05:50:45;;;;;;;1999.90;999.90;;;-7.30;99.90;;;;;;5050049;28;20580;-68
2022/12/15 05:53:11;;;;;;;1999.90;999.90;;;-7.20;99.90;;;;;;5049686;28;20208;-66
2022/12/15 05:55:38;;;;;;;1999.90;999.90;;;-7.20;99.90;;;;;;5051671;28;20468;-66
2022/12/15 05:58:05;;;;;;;1999.90;999.90;;;-7.20;99.90;;;;;;5057064;28;20478;-67
2022/12/15 06:00:33;;;;;;;1999.90;999.90;;;-7.10;99.90;;;;;;5057688;28;20457;-67
2022/12/15 06:03:01;;;;;;;1999.90;999.90;;;-7.20;99.90;;;;;;5055623;28;20961;-67
2022/12/15 06:05:28;;;;;;;1999.90;999.90;;;-7.20;99.90;;;;;;5047888;28;21115;-66
2022/12/15 06:07:55;;;;;;;1999.90;999.90;;;-7.30;99.90;;;;;;5052939;28;20482;-67
2022/12/15 06:10:21;;;;;;;1999.90;999.90;;;-7.30;99.90;;;;;;5060300;28;20469;-67
2022/12/15 06:12:48;;;;;;;1999.90;999.90;;;-7.30;99.90;;;;;;5056435;28;20465;-67
2022/12/15 06:15:15;;;;;;;1999.90;999.90;;;-7.20;99.90;;;;;;5057920;28;20461;-67
2022/12/15 06:17:43;;;;;;;1999.90;999.90;;;-7.20;99.90;;;;;;5054206;28;20493;-66
2022/12/15 06:20:11;;;;;;;1999.90;999.90;;;-7.10;99.90;;;;;;5052065;28;20454;-67
2022/12/15 06:22:38;;;;;;;1999.90;999.90;;;-7.10;99.90;;;;;;5055820;28;20844;-66
2022/12/15 06:25:06;;;;;;;1999.90;999.90;;;-7.00;99.90;;;;;;5054449;28;20485;-65
2022/12/15 06:27:34;;;;;;;1999.90;999.90;;;-7.00;99.90;;;;;;5051650;28;20487;-67
2022/12/15 06:30:01;;;;;;;1999.90;999.90;;;-7.00;99.90;;;;;;5054028;28;20963;-67
2022/12/15 06:32:28;;;;;;;1999.90;999.90;;;-6.90;99.90;;;;;;5049320;28;20462;-67
2022/12/15 06:34:56;;;;;;;1999.90;999.90;;;-6.90;99.90;;;;;;5048441;28;20466;-65
2022/12/15 06:37:23;;;;;;;1999.90;999.90;;;-6.90;99.90;;;;;;5056881;28;20485;-66
2022/12/15 06:39:49;;;;;;;1999.90;999.90;;;-6.90;99.90;;;;;;5053889;28;20485;-65
2022/12/15 06:42:16;;;;;;;1999.90;999.90;;;-6.80;99.90;;;;;;5058532;28;20469;-66
2022/12/15 06:44:43;;;;;;;1999.90;999.90;;;-6.80;99.90;;;;;;5052008;28;20210;-65
2022/12/15 06:47:10;;;;;;;1999.90;999.90;;;-6.80;99.90;;;;;;5056395;28;20993;-66
2022/12/15 06:49:37;;;;;;;1999.90;999.90;;;-6.90;99.90;;;;;;5054321;28;20460;-66
2022/12/15 06:52:05;;;;;;;1999.90;999.90;;;-7.20;99.90;;;;;;5050723;28;20470;-68
2022/12/15 06:54:32;;;;;;;1999.90;999.90;;;-6.80;99.90;;;;;;5050603;28;20464;-67
2022/12/15 06:56:58;;;;;;;1999.90;999.90;;;-6.90;99.90;;;;;;5052062;28;20462;-66
2022/12/15 06:59:25;;;;;;;1999.90;999.90;;;-6.80;99.90;;;;;;5058429;28;21047;-66
2022/12/15 07:01:52;;;;;;;1999.90;999.90;;;-6.80;99.90;;;;;;5050486;28;20870;-66
2022/12/15 07:04:19;;;;;;;1999.90;999.90;;;-6.70;99.90;;;;;;5054223;28;20990;-65
2022/12/15 07:06:45;;;;;;;1999.90;999.90;;;-6.70;99.90;;;;;;5051780;28;20502;-66
2022/12/15 07:09:16;;;;;;;1999.90;999.90;;;-6.70;99.90;;;;;;5057743;28;20486;-66
2022/12/15 07:11:44;;;;;;;1999.90;999.90;;;-6.70;99.90;;;;;;5056489;28;20456;-66
2022/12/15 07:14:11;;;;;;;1999.90;999.90;;;-6.70;99.90;;;;;;5055838;28;20842;-66
2022/12/15 07:16:37;;;;;;;1999.90;999.90;;;-6.60;99.90;;;;;;5045306;28;20541;-67
2022/12/15 07:19:04;;;;;;;1999.90;999.90;;;-6.60;99.90;;;;;;5050694;28;20497;-64
2022/12/15 07:21:32;;;;;;;1999.90;999.90;;;-6.70;99.90;;;;;;5057441;28;20460;-65
2022/12/15 07:23:59;;;;;;;1999.90;999.90;;;-6.60;99.90;;;;;;5051005;28;20489;-66
2022/12/15 07:26:27;;;;;;;1999.90;999.90;;;-6.50;99.90;;;;;;5058905;28;20490;-63
2022/12/15 07:28:54;;;;;;;1999.90;999.90;;;-6.60;99.90;;;;;;5050136;28;20479;-66
2022/12/15 07:31:22;;;;;;;1999.90;999.90;;;-6.70;99.90;;;;;;5054094;28;20468;-66
2022/12/15 07:33:50;;;;;;;1999.90;999.90;;;-6.80;99.90;;;;;;5055576;28;20463;-65
2022/12/15 07:36:17;;;;;;;1999.90;999.90;;;-6.80;99.90;;;;;;5072670;28;20454;-67
2022/12/15 07:38:45;;;;;;;1999.90;999.90;;;-6.80;99.90;;;;;;5054555;28;20483;-66
2022/12/15 07:41:12;;;;;;;1999.90;999.90;;;-6.80;99.90;;;;;;5051901;28;20509;-66
2022/12/15 07:43:40;;;;;;;1999.90;999.90;;;-6.80;99.90;;;;;;5050582;28;20978;-65
2022/12/15 07:46:07;;;;;;;1999.90;999.90;;;-6.80;99.90;;;;;;5053244;28;20504;-66
2022/12/15 07:48:34;;;;;;;1999.90;999.90;;;-6.80;99.90;;;;;;5055361;28;20571;-65
2022/12/15 07:51:05;;;;;;;1999.90;999.90;;;-6.70;99.90;;;;;;5069205;28;20446;-66
2022/12/15 07:53:32;;;;;;;1999.90;999.90;;;-6.70;99.90;;;;;;5055124;28;20469;-66
2022/12/15 07:56:00;;;;;;;1999.90;999.90;;;-6.60;99.90;;;;;;5051427;28;20466;-66
2022/12/15 07:58:27;;;;;;;1999.90;999.90;;;-6.60;99.90;;;;;;5044707;28;21015;-67
2022/12/15 08:00:59;;;;;;;1999.90;999.90;;;-6.60;99.90;;;;;;5055834;28;20812;-67
2022/12/15 08:03:25;;;;;;;1999.90;999.90;;;-6.60;99.90;;;;;;5050806;28;20603;-66
2022/12/15 08:05:53;;;;;;;1999.90;999.90;;;-6.50;99.90;;;;;;5050059;28;20478;-66
2022/12/15 08:08:19;;;;;;;1999.90;999.90;;;-6.50;99.90;;;;;;5048584;28;20559;-65
2022/12/15 08:10:46;;;;;;;1999.90;999.90;;;-6.30;99.90;;;;;;5061435;28;20457;-66
2022/12/15 08:13:13;;;;;;;1999.90;999.90;;;-6.20;99.90;;;;;;5052201;28;20439;-66
2022/12/15 08:15:41;;;;;;;1999.90;999.90;;;-6.10;99.90;;;;;;5049055;28;20451;-65
2022/12/15 08:18:09;;;;;;;1999.90;999.90;;;-6.00;99.90;;;;;;5062680;28;20470;-66
2022/12/15 08:20:36;;;;;;;1999.90;999.90;;;-5.90;99.90;;;;;;5053270;28;20442;-66
2022/12/15 08:23:02;;;;;;;1999.90;999.90;;;-5.80;99.90;;;;;;5044195;28;20844;-66
2022/12/15 08:25:29;;;;;;;1999.90;999.90;;;-5.60;99.90;;;;;;5050781;28;20482;-66
2022/12/15 08:27:56;;;;;;;1999.90;999.90;;;-5.40;99.90;;;;;;5052012;28;20822;-66
2022/12/15 08:30:24;;;;;;;1999.90;999.90;;;-5.20;99.90;;;;;;5046239;28;20465;-64
2022/12/15 08:32:51;;;;;;;1999.90;999.90;;;-5.20;99.90;;;;;;5047107;28;20462;-66
2022/12/15 08:35:19;;;;;;;1999.90;999.90;;;-5.20;99.90;;;;;;5049546;28;20912;-65
2022/12/15 08:37:46;;;;;;;1999.90;999.90;;;-4.80;99.90;;;;;;5043740;28;20849;-66
2022/12/15 08:40:13;;;;;;;1999.90;999.90;;;-4.80;99.90;;;;;;5047480;28;20954;-66
2022/12/15 08:42:40;;;;;;;1999.90;999.90;;;-4.70;99.90;;;;;;5048770;28;20466;-67
2022/12/15 08:45:07;;;;;;;1999.90;999.90;;;-4.60;99.90;;;;;;5052236;28;20458;-65
2022/12/15 08:47:34;;;;;;;1999.90;999.90;;;-4.20;99.90;;;;;;5046312;28;21021;-66
2022/12/15 08:50:01;;;;;;;1999.90;999.90;;;-4.00;99.90;;;;;;5051173;28;20854;-66
2022/12/15 08:52:29;;;;;;;1999.90;999.90;;;-3.80;99.90;;;;;;5044108;28;20847;-66
2022/12/15 08:54:56;;;;;;;1999.90;999.90;;;-3.70;99.90;;;;;;5048329;28;20474;-67
2022/12/15 08:57:23;;;;;;;1999.90;999.90;;;-3.70;99.90;;;;;;5049623;28;20473;-70
2022/12/15 08:59:49;;;;;;;1999.90;999.90;;;-3.60;99.90;;;;;;5052873;28;20463;-69
2022/12/15 09:02:17;;;;;;;1999.90;999.90;;;-3.40;99.90;;;;;;5046974;28;20469;-69
2022/12/15 09:04:44;;;;;;;1999.90;999.90;;;-3.40;99.90;;;;;;5040291;28;20468;-68
2022/12/15 09:07:11;;;;;;;1999.90;999.90;;;-3.30;99.90;;;;;;5049968;28;20541;-69
2022/12/15 09:09:39;;;;;;;1999.90;999.90;;;-3.30;99.90;;;;;;5047099;28;20462;-68
2022/12/15 09:12:06;;;;;;;1999.90;999.90;;;-3.30;99.90;;;;;;5041008;28;20462;-66
2022/12/15 09:14:33;;;;;;;1999.90;999.90;;;-3.30;99.90;;;;;;5045892;28;20447;-66
2022/12/15 09:17:00;;;;;;;1999.90;999.90;;;-3.10;99.90;;;;;;5042671;28;20466;-66
2022/12/15 09:19:27;;;;;;;1999.90;999.90;;;-3.10;99.90;;;;;;5049463;28;20465;-66
2022/12/15 09:21:54;;;;;;;1999.90;999.90;;;-2.90;99.90;;;;;;5051160;28;20458;-66
2022/12/15 09:24:23;;;;;;;1999.90;999.90;;;-3.10;99.90;;;;;;5050186;28;20465;-66
2022/12/15 09:26:51;;;;;;;1999.90;999.90;;;-3.10;99.90;;;;;;5052892;28;20496;-66
2022/12/15 09:29:18;;;;;;;1999.90;999.90;;;-3.00;99.90;;;;;;5050280;28;20486;-66
2022/12/15 09:31:45;;;;;;;1999.90;999.90;;;-3.00;99.90;;;;;;5053453;28;20938;-66
2022/12/15 09:34:15;;;;;;;1999.90;999.90;;;-3.10;99.90;;;;;;5050974;28;20541;-66
2022/12/15 09:36:42;;;;;;;1999.90;999.90;;;-3.10;99.90;;;;;;5036613;28;20953;-66
2022/12/15 09:39:10;;;;;;;1999.90;999.90;;;-3.00;99.90;;;;;;5031371;28;20467;-66
2022/12/15 09:41:39;;;;;;;1999.90;999.90;;;-2.90;99.90;;;;;;5050538;28;20880;-66
2022/12/15 09:44:12;;;;;;;1999.90;999.90;;;-2.60;99.90;;;;;;5050905;28;20457;-66
2022/12/15 09:46:52;;;;;;;1999.90;999.90;;;-2.60;99.90;;;;;;5050661;28;20474;-66
2022/12/15 09:49:34;;;;;;;1999.90;999.90;;;-2.60;99.90;;;;;;5053659;28;21008;-68
2022/12/15 09:52:05;;;;;;;1999.90;999.90;;;-2.70;99.90;;;;;;5054840;28;20805;-67
2022/12/15 09:54:33;;;;;;;1999.90;999.90;;;-2.60;99.90;;;;;;5054591;28;20426;-66
2022/12/15 09:57:05;;;;;;;1999.90;999.90;;;-2.50;99.90;;;;;;5067902;28;20446;-66
2022/12/15 09:59:41;;;;;;;1999.90;999.90;;;-2.50;99.90;;;;;;5071631;28;20783;-67
2022/12/15 10:02:28;;;;;;;1999.90;999.90;;;-2.40;99.90;;;;;;5073163;28;20436;-66
2022/12/15 10:05:01;;;;;;;1999.90;999.90;;;-2.10;99.90;;;;;;5067478;28;20457;-66
2022/12/15 10:07:34;;;;;;;1999.90;999.90;;;-2.00;99.90;;;;;;5065442;28;20490;-66
2022/12/15 10:10:06;;;;;;;1999.90;999.90;;;-1.90;99.90;;;;;;5054897;28;20841;-67
2022/12/15 10:12:37;;;;;;;1999.90;999.90;;;-1.80;99.90;;;;;;5054702;28;20450;-66
2022/12/15 10:15:15;;;;;;;1999.90;999.90;;;-1.60;99.90;;;;;;5052984;28;20450;-67
2022/12/15 10:17:48;;;;;;;1999.90;999.90;;;-1.60;99.90;;;;;;5048443;28;20482;-66
2022/12/15 10:20:18;;;;;;;1999.90;999.90;;;-1.50;99.90;;;;;;5054653;28;20447;-66
2022/12/15 10:22:45;;;;;;;1999.90;999.90;;;-1.50;99.90;;;;;;5054243;28;20962;-67
2022/12/15 10:25:16;;;;;;;1999.90;999.90;;;-1.40;99.90;;;;;;5041643;28;20451;-67
2022/12/15 10:27:59;;;;;;;1999.90;999.90;;;-1.30;99.90;;;;;;5039577;28;20482;-66
2022/12/15 10:30:27;;;;;;;1999.90;999.90;;;-1.30;99.90;;;;;;5049100;28;20876;-66
2022/12/15 10:33:01;;;;;;;1999.90;999.90;;;-1.10;99.90;;;;;;5054517;28;20460;-66
2022/12/15 10:35:30;;;;;;;1999.90;999.90;;;-1.10;99.90;;;;;;5046810;28;20463;-66
2022/12/15 10:37:59;;;;;;;1999.90;999.90;;;-1.00;99.90;;;;;;5059451;28;20478;-67
2022/12/15 10:40:43;;;;;;;1999.90;999.90;;;-0.90;99.90;;;;;;5055841;28;20969;-67
2022/12/15 10:43:14;;;;;;;1999.90;999.90;;;-1.00;99.90;;;;;;5059162;28;20450;-66
2022/12/15 10:45:42;;;;;;;1999.90;999.90;;;-0.90;99.90;;;;;;5048470;28;20622;-66
2022/12/15 10:48:19;;;;;;;1999.90;999.90;;;-0.80;99.90;;;;;;5059863;28;20482;-66
2022/12/15 10:50:46;;;;;;;1999.90;999.90;;;-0.80;99.90;;;;;;5049706;28;20829;-67
2022/12/15 10:53:38;;;;;;;1999.90;999.90;;;-0.80;99.90;;;;;;5049798;28;20501;-66
2022/12/15 10:56:07;;;;;;;1999.90;999.90;;;-0.70;99.90;;;;;;5048105;28;20458;-66
2022/12/15 10:58:46;;;;;;;1999.90;999.90;;;-0.60;99.90;;;;;;5050493;28;20473;-67
2022/12/15 11:01:18;;;;;;;1999.90;999.90;;;-0.40;99.90;;;;;;5045654;28;20454;-65
2022/12/15 11:03:45;;;;;;;1999.90;999.90;;;-0.30;99.90;;;;;;5045610;28;20465;-66
2022/12/15 11:06:18;;;;;;;1999.90;999.90;;;-0.20;99.90;;;;;;5049412;28;20904;-66
2022/12/15 11:08:46;;;;;;;1999.90;999.90;;;-0.10;99.90;;;;;;5043750;28;20486;-67
2022/12/15 11:14:17;;;;;;;1999.90;999.90;;;0.00;99.90;;;;;;5054910;28;20507;-67
2022/12/15 11:16:49;;;;;;;1999.90;999.90;;;0.10;99.90;;;;;;5048031;28;20454;-68
2022/12/15 11:19:27;;;;;;;1999.90;999.90;;;0.30;99.90;;;;;;5048595;28;20489;-67
2022/12/15 11:21:59;;;;;;;1999.90;999.90;;;0.40;99.90;;;;;;5046353;28;20462;-67
2022/12/15 11:24:33;;;;;;;1999.90;999.90;;;0.50;99.90;;;;;;5060666;28;20445;-66
2022/12/15 11:27:08;;;;;;;1999.90;999.90;;;0.60;99.90;;;;;;5052540;28;20473;-66
2022/12/15 11:29:48;;;;;;;1999.90;999.90;;;0.60;99.90;;;;;;5046161;28;20444;-67
2022/12/15 11:32:21;;;;;;;1999.90;999.90;;;0.70;99.90;;;;;;5053132;28;20438;-67
2022/12/15 11:34:48;;;;;;;1999.90;999.90;;;0.80;99.90;;;;;;5052452;28;20453;-67
2022/12/15 11:37:40;;;;;;;1999.90;999.90;;;0.70;99.90;;;;;;5052037;28;20462;-67
2022/12/15 11:40:23;;;;;;;1999.90;999.90;;;0.90;99.90;;;;;;5052870;28;20454;-67
2022/12/15 11:43:09;;;;;;;1999.90;999.90;;;1.00;99.90;;;;;;5052559;28;20496;-67
2022/12/15 11:45:47;;;;;;;1999.90;999.90;;;1.00;99.90;;;;;;5052158;28;20427;-67
2022/12/15 11:48:17;;;;;;;1999.90;999.90;;;1.00;99.90;;;;;;5051748;28;20497;-67
2022/12/15 11:50:53;;;;;;;1999.90;999.90;;;1.10;99.90;;;;;;5052618;28;20439;-67
2022/12/15 11:53:48;;;;;;;1999.90;999.90;;;1.30;99.90;;;;;;5053397;28;20445;-67
2022/12/15 11:56:24;;;;;;;1999.90;999.90;;;1.30;99.90;;;;;;5052800;28;20799;-67
2022/12/15 11:59:10;;;;;;;1999.90;999.90;;;1.20;99.90;;;;;;5049421;28;20875;-66
2022/12/15 12:01:56;;;;;;;1999.90;999.90;;;1.20;99.90;;;;;;5061303;28;20449;-67
2022/12/15 12:04:28;;;;;;;1999.90;999.90;;;1.20;99.90;;;;;;5052813;28;20485;-66
2022/12/15 12:07:06;;;;;;;1999.90;999.90;;;1.40;99.90;;;;;;5049213;28;20462;-67
2022/12/15 12:09:36;;;;;;;1999.90;999.90;;;1.40;99.90;;;;;;5047928;28;20493;-66
2022/12/15 12:12:20;;;;;;;1999.90;999.90;;;1.40;99.90;;;;;;5054119;28;20982;-65
2022/12/15 12:14:57;;;;;;;1999.90;999.90;;;1.50;99.90;;;;;;5045228;28;20454;-68
2022/12/15 12:17:37;;;;;;;1999.90;999.90;;;1.50;99.90;;;;;;5051614;28;20850;-67
2022/12/15 12:20:14;;;;;;;1999.90;999.90;;;1.50;99.90;;;;;;5049048;28;20458;-67
2022/12/15 12:22:45;;;;;;;1999.90;999.90;;;1.50;99.90;;;;;;5049555;28;20469;-66
2022/12/15 12:25:15;;;;;;;1999.90;999.90;;;1.60;99.90;;;;;;5051926;28;21002;-66
2022/12/15 12:27:51;;;;;;;1999.90;999.90;;;1.70;99.90;;;;;;5051163;28;20481;-67
2022/12/15 12:30:21;;;;;;;1999.90;999.90;;;1.70;99.90;;;;;;5049296;28;20528;-66
2022/12/15 12:32:53;;;;;;;1999.90;999.90;;;1.80;99.90;;;;;;5051075;28;20462;-67
2022/12/15 12:35:29;;;;;;;1999.90;999.90;;;1.90;99.90;;;;;;5055111;28;20486;-67
2022/12/15 12:37:59;;;;;;;1999.90;999.90;;;1.90;99.90;;;;;;5053035;28;20477;-67
2022/12/15 12:40:36;;;;;;;1999.90;999.90;;;1.90;99.90;;;;;;5042220;28;20459;-68
2022/12/15 12:43:04;;;;;;;1999.90;999.90;;;1.80;99.90;;;;;;5050345;28;20816;-67
2022/12/15 12:45:38;;;;;;;1999.90;999.90;;;1.80;99.90;;;;;;5059142;28;20951;-67
2022/12/15 12:48:12;;;;;;;1999.90;999.90;;;1.60;99.90;;;;;;5050463;28;20486;-67
2022/12/15 12:50:41;;;;;;;1999.90;999.90;;;1.40;99.90;;;;;;5049182;28;21007;-68
2022/12/15 12:53:25;;;;;;;1999.90;999.90;;;1.40;99.90;;;;;;5048143;28;20462;-67
2022/12/15 12:55:52;;;;;;;1999.90;999.90;;;1.30;99.90;;;;;;5052721;28;20998;-66
2022/12/15 12:58:34;;;;;;;1999.90;999.90;;;1.40;99.90;;;;;;5057482;28;20482;-67
2022/12/15 13:01:18;;;;;;;1999.90;999.90;;;1.50;99.90;;;;;;5047897;28;20462;-67
2022/12/15 13:03:46;;;;;;;1999.90;999.90;;;1.90;99.90;;;;;;5049048;28;20504;-67
2022/12/15 13:07:00;;;;;;;1999.90;999.90;;;1.50;99.90;;;;;;5049250;28;21124;-67
2022/12/15 13:09:38;;;;;;;1999.90;999.90;;;1.40;99.90;;;;;;5047132;28;20485;-67
2022/12/15 13:12:30;;;;;;;1999.90;999.90;;;1.40;99.90;;;;;;5049726;28;20462;-67
2022/12/15 13:14:58;;;;;;;1999.90;999.90;;;1.40;99.90;;;;;;5049967;28;20466;-66
2022/12/15 13:17:30;;;;;;;1999.90;999.90;;;1.30;99.90;;;;;;5051195;28;20478;-66
2022/12/15 13:20:28;;;;;;;1999.90;999.90;;;1.30;99.90;;;;;;5049688;28;20950;-67
2022/12/15 13:23:28;;;;;;;1999.90;999.90;;;1.30;99.90;;;;;;5046564;28;20949;-67
2022/12/15 13:26:14;;;;;;;1999.90;999.90;;;1.30;99.90;;;;;;5049489;28;20492;-67
2022/12/15 13:28:45;;;;;;;1999.90;999.90;;;1.40;99.90;;;;;;5054494;28;20513;-65
2022/12/15 13:31:38;;;;;;;1999.90;999.90;;;1.30;99.90;;;;;;5049409;28;20469;-66
2022/12/15 13:34:27;;;;;;;1999.90;999.90;;;1.30;99.90;;;;;;5054695;28;20967;-66
2022/12/15 13:36:59;;;;;;;1999.90;999.90;;;1.40;99.90;;;;;;5055926;28;20479;-67
2022/12/15 13:39:54;;;;;;;1999.90;999.90;;;1.30;99.90;;;;;;5049947;28;20458;-66
2022/12/15 13:42:26;;;;;;;1999.90;999.90;;;1.20;99.90;;;;;;5048467;28;20857;-66
2022/12/15 13:45:04;;;;;;;1999.90;999.90;;;1.20;99.90;;;;;;5049528;28;20465;-66
2022/12/15 13:47:33;;;;;;;1999.90;999.90;;;1.00;99.90;;;;;;5055119;28;21115;-66
2022/12/15 13:50:06;;;;;;;1999.90;999.90;;;0.90;99.90;;;;;;5053289;28;20532;-67
2022/12/15 13:52:36;;;;;;;1999.90;999.90;;;0.80;99.90;;;;;;5051269;28;20851;-67
2022/12/15 13:55:07;;;;;;;1999.90;999.90;;;0.80;99.90;;;;;;5051670;28;20962;-67
2022/12/15 13:57:44;;;;;;;1999.90;999.90;;;0.80;99.90;;;;;;5054072;28;20727;-67
2022/12/15 14:00:17;;;;;;;1999.90;999.90;;;0.70;99.90;;;;;;5052748;28;20454;-65
2022/12/15 14:02:46;;;;;;;1999.90;999.90;;;0.70;99.90;;;;;;5052213;28;20465;-66
2022/12/15 14:05:16;;;;;;;1999.90;999.90;;;0.60;99.90;;;;;;5056791;28;20882;-67
2022/12/15 14:07:46;;;;;;;1999.90;999.90;;;0.60;99.90;;;;;;5056394;28;20579;-67
2022/12/15 14:10:19;;;;;;;1999.90;999.90;;;0.60;99.90;;;;;;5050531;28;20925;-67
2022/12/15 14:12:47;;;;;;;1999.90;999.90;;;0.60;99.90;;;;;;5050758;28;20983;-67
2022/12/15 14:15:15;;;;;;;1999.90;999.90;;;0.60;99.90;;;;;;5055097;28;20830;-67
2022/12/15 14:17:46;;;;;;;1999.90;999.90;;;0.50;99.90;;;;;;5052956;28;20509;-67
2022/12/15 14:20:19;;;;;;;1999.90;999.90;;;0.50;99.90;;;;;;5051333;28;20985;-67
2022/12/15 14:22:46;;;;;;;1999.90;999.90;;;0.50;99.90;;;;;;5050748;28;20508;-66
2022/12/15 14:25:17;;;;;;;1999.90;999.90;;;0.50;99.90;;;;;;5048993;28;20989;-68
2022/12/15 14:27:44;;;;;;;1999.90;999.90;;;0.50;99.90;;;;;;5056827;28;21000;-68
2022/12/15 14:30:18;;;;;;;1999.90;999.90;;;0.40;99.90;;;;;;5058213;28;20462;-66
2022/12/15 14:32:50;;;;;;;1999.90;999.90;;;0.30;99.90;;;;;;5050982;28;20469;-65
2022/12/15 14:35:22;;;;;;;1999.90;999.90;;;0.30;99.90;;;;;;5048445;28;20826;-67
2022/12/15 14:37:49;;;;;;;1999.90;999.90;;;0.20;99.90;;;;;;5054081;28;20485;-66
2022/12/15 14:40:18;;;;;;;1999.90;999.90;;;0.10;99.90;;;;;;5059323;28;20468;-65
2022/12/15 14:42:46;;;;;;;1999.90;999.90;;;0.10;99.90;;;;;;5049718;28;20454;-64
2022/12/15 14:45:19;;;;;;;1999.90;999.90;;;0.00;99.90;;;;;;5054955;28;20837;-66
2022/12/15 14:47:52;;;;;;;1999.90;999.90;;;-0.10;99.90;;;;;;5060473;28;21207;-66
2022/12/15 14:50:21;;;;;;;1999.90;999.90;;;-0.20;99.90;;;;;;5059998;28;20461;-67